Startpagina
METAR-TAF:

METAR-TAF

Vliegvelden :

Caïro, Egypte

Luchthaven Caïro Internationaal

breedte: 30-08N, lengte: 031-24E, hoogte: 64 m

Actueel weer

Dit bericht is 8 minuten geleden gemaakt, om 00:00 UTC
Wind 14 kt uit het noordnoordoosten
Temperatuur 23°C
Vochtigheid 78%
Druk 1012 hPa
Zicht 10 km of meer
geen wolken onder 1500 m en geen cumulonimbus

METAR: HECA 290000Z 03014KT CAVOK 23/19 Q1012 NOSIG

Tijdstip: 02:08 (00:08 UTC)

Verwachting

Dit bericht is 1 uur en het 8 minuten geleden gemaakt, om 23:00 UTC
Verwachting geldig van 29 om 00 UTC tot 30 om 06 UTC
Wind 13 kt uit het noordoosten
Zicht 10 km of meer
geen wolken onder 1500 m en geen cumulonimbus

TAF: HECA 282300Z 2900/3006 05013KT CAVOK

Waarnemingen en weersverwachtingen van meer dan 4000 vliegvelden (METAR en TAF).

De beschikbare stations zijn de gele en rode punten op de kaart.

Ga met uw muis naar het station om de naam te zien.

Klik dan om waarnemingen en weersverwachtingen te zien.

kaart wijzigen: klik op de groene knoppen met een zwart kruis om in te zoomen, op de groene knop met een streepje om uit te zoomen of op de groene pijlen voor aangrenzende kaarten.


METAR-TAF: